createdAt,value
2022-11-30T00:01:46.003Z,102229.94
2022-11-30T00:04:15.179Z,102227.69
2022-11-30T00:06:44.383Z,102228.38
2022-11-30T00:09:13.507Z,102233.72
2022-11-30T00:11:42.549Z,102223.66
2022-11-30T00:14:12.888Z,102225.53
2022-11-30T00:16:42.065Z,102222.41
2022-11-30T00:19:11.062Z,102226.22
2022-11-30T00:21:40.111Z,102221.19
2022-11-30T00:24:09.455Z,102218.28
2022-11-30T00:26:38.772Z,102220.81
2022-11-30T00:29:07.725Z,102220.25
2022-11-30T00:31:38.067Z,102219.88
2022-11-30T00:34:07.068Z,102216.69
2022-11-30T00:36:36.147Z,102218.88
2022-11-30T00:39:05.464Z,102211.63
2022-11-30T00:41:34.465Z,102205.69
2022-11-30T00:44:03.431Z,102206.63
2022-11-30T00:46:32.571Z,102209.13
2022-11-30T00:49:02.997Z,102208.50
2022-11-30T00:51:32.038Z,102201.94
2022-11-30T00:54:00.992Z,102200.38
2022-11-30T00:56:30.075Z,102208.50
2022-11-30T00:58:59.023Z,102213.50
2022-11-30T01:01:28.020Z,102207.19
2022-11-30T01:03:57.070Z,102205.31
2022-11-30T01:06:30.072Z,102201.53
2022-11-30T01:08:59.958Z,102197.78
2022-11-30T01:11:30.436Z,102200.31
2022-11-30T01:14:02.393Z,102199.94
2022-11-30T01:16:33.454Z,102203.41
2022-11-30T01:19:02.700Z,102205.91
2022-11-30T01:21:33.221Z,102209.66
2022-11-30T01:24:02.323Z,102200.22
2022-11-30T01:26:31.295Z,102200.22
2022-11-30T01:29:00.278Z,102203.34
2022-11-30T01:31:29.268Z,102204.59
2022-11-30T01:33:58.246Z,102206.75
2022-11-30T01:36:28.023Z,102200.81
2022-11-30T01:38:59.440Z,102202.38
2022-11-30T01:41:32.986Z,102198.25
2022-11-30T01:44:35.129Z,102198.56
2022-11-30T01:47:07.222Z,102198.88
2022-11-30T01:49:39.378Z,102194.81
2022-11-30T01:52:13.066Z,102197.31
2022-11-30T01:54:48.645Z,102200.09
2022-11-30T01:57:23.257Z,102203.19
2022-11-30T01:59:54.523Z,102200.63
2022-11-30T02:02:28.414Z,102191.19
2022-11-30T02:04:57.858Z,102190.88
2022-11-30T02:07:27.244Z,102193.06
2022-11-30T02:09:57.709Z,102189.94
2022-11-30T02:12:38.811Z,102190.59
2022-11-30T02:15:13.291Z,102188.09
2022-11-30T02:17:53.127Z,102185.59
2022-11-30T02:20:48.107Z,102188.09
2022-11-30T02:23:42.988Z,102182.16
2022-11-30T02:26:20.807Z,102189.94
2022-11-30T02:29:14.911Z,102186.19
2022-11-30T02:31:50.844Z,102185.56
2022-11-30T02:34:21.995Z,102184.00
2022-11-30T02:36:51.948Z,102184.25
2022-11-30T02:39:22.751Z,102191.19
2022-11-30T02:41:51.677Z,102187.38
2022-11-30T02:44:24.101Z,102190.22
2022-11-30T02:47:06.460Z,102191.78
2022-11-30T02:49:42.325Z,102182.38
2022-11-30T02:52:12.604Z,102190.16
2022-11-30T02:54:41.744Z,102196.06
2022-11-30T02:57:11.522Z,102185.47
2022-11-30T02:59:42.513Z,102191.72
2022-11-30T03:02:11.863Z,102184.16
2022-11-30T03:04:40.821Z,102185.47
2022-11-30T03:07:09.857Z,102187.03
2022-11-30T03:09:38.778Z,102180.09
2022-11-30T03:12:08.148Z,102180.41
2022-11-30T03:14:37.116Z,102175.94
2022-11-30T03:17:07.759Z,102175.94
2022-11-30T03:19:36.784Z,102185.28
2022-11-30T03:22:05.938Z,102188.41
2022-11-30T03:24:34.865Z,102186.25
2022-11-30T03:27:03.815Z,102184.34
2022-11-30T03:29:32.844Z,102182.72
2022-11-30T03:32:01.762Z,102185.84
2022-11-30T03:34:32.352Z,102183.97
2022-11-30T03:37:01.267Z,102186.13
2022-11-30T03:39:30.402Z,102188.06
2022-11-30T03:41:59.566Z,102183.34
2022-11-30T03:44:29.933Z,102187.38
2022-11-30T03:46:58.893Z,102182.09
2022-11-30T03:49:27.976Z,102180.84
2022-11-30T03:51:58.325Z,102172.34
2022-11-30T03:54:27.273Z,102179.50
2022-11-30T03:56:56.282Z,102177.69
2022-11-30T03:59:25.187Z,102183.97
2022-11-30T04:01:54.232Z,102178.91
2022-11-30T04:04:23.383Z,102179.19
2022-11-30T04:06:52.590Z,102173.50
2022-11-30T04:09:23.099Z,102178.81
2022-11-30T04:11:52.004Z,102175.03
2022-11-30T04:14:20.981Z,102181.84
2022-11-30T04:16:50.006Z,102175.59
2022-11-30T04:19:18.914Z,102180.59
2022-11-30T04:21:47.952Z,102177.47
2022-11-30T04:24:16.884Z,102178.09
2022-11-30T04:26:47.417Z,102173.97
2022-11-30T04:29:16.511Z,102179.59
2022-11-30T04:31:45.576Z,102170.47
2022-11-30T04:34:14.678Z,102180.56
2022-11-30T04:36:43.649Z,102176.75
2022-11-30T04:39:12.679Z,102175.81
2022-11-30T04:41:41.612Z,102173.25
2022-11-30T04:44:12.052Z,102173.53
2022-11-30T04:46:41.037Z,102179.78
2022-11-30T04:49:10.150Z,102182.84
2022-11-30T04:51:39.156Z,102176.66
2022-11-30T04:54:08.251Z,102176.75
2022-11-30T04:56:37.238Z,102191.72
2022-11-30T04:59:06.214Z,102187.59
2022-11-30T05:01:36.599Z,102185.97
2022-11-30T05:04:05.826Z,102193.53
2022-11-30T05:06:34.911Z,102199.75
2022-11-30T05:09:03.843Z,102197.25
2022-11-30T05:11:32.929Z,102199.13
2022-11-30T05:14:02.121Z,102207.63
2022-11-30T05:16:31.131Z,102212.91
2022-11-30T05:19:01.600Z,102213.88
2022-11-30T05:21:30.556Z,102208.94
2022-11-30T05:23:59.720Z,102212.47
2022-11-30T05:26:28.686Z,102215.50
2022-11-30T05:28:57.696Z,102210.34
2022-11-30T05:31:26.917Z,102209.06
2022-11-30T05:33:56.116Z,102199.38
2022-11-30T05:36:26.724Z,102204.44
2022-11-30T05:38:55.815Z,102209.81
2022-11-30T05:41:24.855Z,102202.88
2022-11-30T05:43:54.063Z,102212.31
2022-11-30T05:46:23.064Z,102213.56
2022-11-30T05:48:52.053Z,102211.44
2022-11-30T05:51:21.927Z,102207.38
2022-11-30T05:53:52.258Z,102208.09
2022-11-30T05:56:23.013Z,102207.22
2022-11-30T05:58:52.207Z,102216.91
2022-11-30T06:01:22.911Z,102215.41
2022-11-30T06:03:52.342Z,102223.66
2022-11-30T06:06:22.115Z,102224.31
2022-11-30T06:08:52.628Z,102222.81
2022-11-30T06:11:21.556Z,102231.06
2022-11-30T06:13:50.506Z,102228.66
2022-11-30T06:16:19.504Z,102233.06
2022-11-30T06:18:48.613Z,102235.69
2022-11-30T06:21:23.975Z,102226.63
2022-11-30T06:23:54.975Z,102224.19
2022-11-30T06:26:24.090Z,102231.56
2022-11-30T06:28:53.099Z,102232.28
2022-11-30T06:31:22.359Z,102233.50
2022-11-30T06:33:51.505Z,102235.72
2022-11-30T06:36:23.928Z,102233.25
2022-11-30T06:38:54.515Z,102231.16
2022-11-30T06:41:23.605Z,102241.25
2022-11-30T06:43:52.544Z,102238.47
2022-11-30T06:46:22.341Z,102236.13
2022-11-30T06:48:51.929Z,102235.84
2022-11-30T06:51:21.414Z,102236.22
2022-11-30T06:53:50.329Z,102237.19
2022-11-30T06:56:23.118Z,102239.13
2022-11-30T06:58:54.439Z,102240.44
2022-11-30T07:01:23.911Z,102230.13
2022-11-30T07:03:53.530Z,102228.31
2022-11-30T07:06:22.601Z,102233.41
2022-11-30T07:08:51.577Z,102230.59
2022-11-30T07:11:22.001Z,102237.59
2022-11-30T07:13:50.906Z,102238.94
2022-11-30T07:16:19.983Z,102245.22
2022-11-30T07:18:48.961Z,102237.41
2022-11-30T07:21:17.945Z,102240.25
2022-11-30T07:24:04.365Z,102242.22
2022-11-30T07:26:35.084Z,102244.13
2022-11-30T07:29:05.385Z,102245.13
2022-11-30T07:31:35.707Z,102254.91
2022-11-30T07:34:06.953Z,102249.56
2022-11-30T07:36:37.574Z,102244.28
2022-11-30T07:39:06.694Z,102254.97
2022-11-30T07:41:37.062Z,102251.22
2022-11-30T07:44:06.813Z,102248.13
2022-11-30T07:46:36.467Z,102247.50
2022-11-30T07:49:06.126Z,102253.19
2022-11-30T07:51:35.218Z,102244.72
2022-11-30T07:54:04.377Z,102248.19
2022-11-30T07:56:33.698Z,102250.72
2022-11-30T07:59:05.063Z,102246.31
2022-11-30T08:01:34.964Z,102248.81
2022-11-30T08:04:04.313Z,102240.63
2022-11-30T08:06:34.699Z,102236.84
2022-11-30T08:09:05.321Z,102233.69
2022-11-30T08:11:37.154Z,102237.16
2022-11-30T08:14:07.533Z,102236.19
2022-11-30T08:16:39.106Z,102234.28
2022-11-30T08:19:08.402Z,102240.53
2022-11-30T08:21:38.212Z,102231.66
2022-11-30T08:24:07.728Z,102229.09
2022-11-30T08:28:46.251Z,102238.19
2022-11-30T08:31:17.928Z,102221.13
2022-11-30T08:33:47.428Z,102228.09
2022-11-30T08:36:17.644Z,102224.66
2022-11-30T08:38:47.513Z,102225.88
2022-11-30T08:41:19.875Z,102219.56
2022-11-30T08:43:51.251Z,102219.19
2022-11-30T08:49:27.086Z,102208.72
2022-11-30T08:54:47.444Z,102206.03
2022-11-30T08:57:17.551Z,102208.53
2022-11-30T08:59:48.752Z,102207.28
2022-11-30T09:02:19.725Z,102201.56
2022-11-30T09:04:51.313Z,102206.22
2022-11-30T09:07:20.384Z,102211.44
2022-11-30T09:09:49.476Z,102208.25
2022-11-30T09:12:18.481Z,102203.56
2022-11-30T09:14:55.588Z,102215.16
2022-11-30T09:17:26.674Z,102203.81
2022-11-30T09:19:56.149Z,102202.44
2022-11-30T09:22:25.351Z,102202.38
2022-11-30T09:24:54.489Z,102199.16
2022-11-30T09:27:23.696Z,102200.66
2022-11-30T09:29:53.991Z,102200.25
2022-11-30T09:32:22.934Z,102196.75
2022-11-30T09:34:52.249Z,102197.41
2022-11-30T09:37:22.252Z,102196.28
2022-11-30T09:39:51.248Z,102196.22
2022-11-30T09:42:40.483Z,102198.75
2022-11-30T09:45:17.138Z,102201.56
2022-11-30T09:48:23.768Z,102202.41
2022-11-30T09:50:54.508Z,102196.03
2022-11-30T09:57:42.809Z,102192.00
2022-11-30T10:00:15.990Z,102189.97
2022-11-30T10:02:45.514Z,102192.47
2022-11-30T10:05:16.280Z,102192.47
2022-11-30T10:07:57.661Z,102180.66
2022-11-30T10:10:35.799Z,102184.78
2022-11-30T10:13:19.045Z,102187.94
2022-11-30T10:16:01.615Z,102182.06
2022-11-30T10:18:42.292Z,102171.28
2022-11-30T10:21:25.935Z,102176.19
2022-11-30T10:24:09.452Z,102175.31
2022-11-30T10:26:42.024Z,102179.09
2022-11-30T10:29:19.345Z,102175.59
2022-11-30T10:31:53.355Z,102171.31
2022-11-30T10:34:24.549Z,102165.66
2022-11-30T10:37:02.614Z,102171.13
2022-11-30T10:39:35.818Z,102164.19
2022-11-30T10:42:11.354Z,102167.31
2022-11-30T10:44:43.626Z,102160.41
2022-11-30T10:47:19.956Z,102164.19
2022-11-30T10:49:52.855Z,102165.13
2022-11-30T10:52:26.432Z,102161.66
2022-11-30T10:55:03.745Z,102169.91
2022-11-30T10:57:34.766Z,102165.47
2022-11-30T11:00:08.686Z,102169.13
2022-11-30T11:02:45.845Z,102163.41
2022-11-30T11:05:21.693Z,102160.94
2022-11-30T11:08:00.025Z,102161.88
2022-11-30T11:10:36.492Z,102169.53
2022-11-30T11:13:06.700Z,102162.19
2022-11-30T11:15:36.484Z,102163.13
2022-11-30T11:18:26.261Z,102164.38
2022-11-30T11:21:06.302Z,102161.59
2022-11-30T11:23:39.573Z,102161.41
2022-11-30T11:26:17.048Z,102158.03
2022-11-30T11:28:47.464Z,102162.94
2022-11-30T11:31:21.045Z,102170.59
2022-11-30T11:33:55.627Z,102166.47
2022-11-30T11:36:28.380Z,102169.34
2022-11-30T11:38:58.004Z,102173.47
2022-11-30T11:41:29.611Z,102168.44
2022-11-30T11:44:03.019Z,102172.19
2022-11-30T11:46:33.309Z,102164.59
2022-11-30T11:49:05.907Z,102166.84
2022-11-30T11:51:36.763Z,102164.38
2022-11-30T11:54:14.746Z,102166.91
2022-11-30T11:56:44.005Z,102162.69
2022-11-30T11:59:19.286Z,102163.75
2022-11-30T12:01:59.548Z,102172.34
2022-11-30T12:04:46.983Z,102172.56
2022-11-30T12:07:26.863Z,102172.16
2022-11-30T12:10:49.561Z,102177.00
2022-11-30T12:13:03.218Z,102177.75
2022-11-30T12:15:38.048Z,102183.53
2022-11-30T12:18:23.739Z,102181.16
2022-11-30T12:21:01.854Z,102184.09
2022-11-30T12:24:00.644Z,102187.97
2022-11-30T12:26:38.005Z,102183.31
2022-11-30T12:29:25.314Z,102191.00
2022-11-30T12:32:08.437Z,102191.28
2022-11-30T12:35:02.999Z,102196.56
2022-11-30T12:37:47.703Z,102186.19
2022-11-30T12:40:27.816Z,102190.72
2022-11-30T12:43:05.646Z,102194.63
2022-11-30T12:45:38.663Z,102200.69
2022-11-30T12:48:19.480Z,102195.06
2022-11-30T12:51:08.270Z,102200.78
2022-11-30T12:53:43.314Z,102208.97
2022-11-30T12:56:20.808Z,102203.94
2022-11-30T12:58:57.832Z,102204.69
2022-11-30T13:01:42.608Z,102199.75
2022-11-30T13:04:17.716Z,102205.31
2022-11-30T13:06:48.115Z,102210.75
2022-11-30T13:09:26.327Z,102204.16
2022-11-30T13:12:00.665Z,102213.03
2022-11-30T13:14:31.540Z,102210.53
2022-11-30T13:17:04.072Z,102202.03
2022-11-30T13:19:59.362Z,102202.69
2022-11-30T13:22:38.155Z,102202.09
2022-11-30T13:25:44.963Z,102200.53
2022-11-30T13:28:19.836Z,102197.06
2022-11-30T13:30:55.681Z,102202.09
2022-11-30T13:33:49.517Z,102197.69
2022-11-30T13:36:33.045Z,102210.28
2022-11-30T13:39:26.864Z,102203.66
2022-11-30T13:42:39.159Z,102200.88
2022-11-30T13:45:30.383Z,102195.53
2022-11-30T13:48:00.294Z,102200.28
2022-11-30T13:50:38.253Z,102201.53
2022-11-30T13:53:21.462Z,102197.13
2022-11-30T13:56:00.913Z,102198.38
2022-11-30T13:58:32.273Z,102196.19
2022-11-30T14:01:21.248Z,102200.94
2022-11-30T14:04:23.904Z,102195.91
2022-11-30T14:06:55.464Z,102190.25
2022-11-30T14:09:58.413Z,102192.13
2022-11-30T14:13:01.030Z,102187.09
2022-11-30T14:15:56.774Z,102188.97
2022-11-30T14:18:42.537Z,102191.84
2022-11-30T14:21:18.796Z,102192.13
2022-11-30T14:23:59.021Z,102186.47
2022-11-30T14:26:36.346Z,102193.41
2022-11-30T14:29:17.827Z,102184.59
2022-11-30T14:31:55.785Z,102185.84
2022-11-30T14:34:28.441Z,102190.91
2022-11-30T14:37:01.802Z,102183.63
2022-11-30T14:39:36.075Z,102180.81
2022-11-30T14:42:07.799Z,102178.91
2022-11-30T14:44:38.010Z,102172.59
2022-11-30T14:47:22.430Z,102175.13
2022-11-30T14:49:53.159Z,102175.78
2022-11-30T14:52:43.401Z,102182.41
2022-11-30T14:55:22.040Z,102179.53
2022-11-30T14:58:02.567Z,102179.53
2022-11-30T15:00:39.273Z,102181.75
2022-11-30T15:03:20.297Z,102177.31
2022-11-30T15:05:53.360Z,102178.31
2022-11-30T15:08:23.151Z,102179.25
2022-11-30T15:10:52.524Z,102175.81
2022-11-30T15:13:22.035Z,102173.28
2022-11-30T15:15:53.460Z,102178.63
2022-11-30T15:18:25.347Z,102174.50
2022-11-30T15:21:00.005Z,102181.44
2022-11-30T15:23:29.908Z,102177.66
2022-11-30T15:26:02.521Z,102176.38
2022-11-30T15:28:35.517Z,102178.28
2022-11-30T15:31:08.175Z,102172.63
2022-11-30T15:33:43.970Z,102180.19
2022-11-30T15:36:31.397Z,102179.84
2022-11-30T15:39:03.805Z,102187.16
2022-11-30T15:41:35.319Z,102185.28
2022-11-30T15:44:04.679Z,102200.38
2022-11-30T15:46:41.205Z,102199.41
2022-11-30T15:49:21.055Z,102187.75
2022-11-30T15:52:00.879Z,102189.63
2022-11-30T15:54:47.478Z,102184.94
2022-11-30T15:57:18.143Z,102182.72
2022-11-30T16:00:07.038Z,102175.81
2022-11-30T16:02:38.440Z,102188.38
2022-11-30T16:05:25.620Z,102189.94
2022-11-30T16:07:59.834Z,102188.38
2022-11-30T16:10:31.362Z,102191.50
2022-11-30T16:13:00.981Z,102195.88
2022-11-30T16:15:34.102Z,102193.06
2022-11-30T16:18:14.787Z,102190.25
2022-11-30T16:20:49.054Z,102192.13
2022-11-30T16:23:19.249Z,102189.28
2022-11-30T16:25:50.603Z,102195.28
2022-11-30T16:28:21.306Z,102187.69
2022-11-30T16:30:51.164Z,102188.03
2022-11-30T16:33:23.773Z,102183.28
2022-11-30T16:35:57.384Z,102184.56
2022-11-30T16:38:27.586Z,102182.03
2022-11-30T16:40:57.299Z,102183.25
2022-11-30T16:43:26.907Z,102185.47
2022-11-30T16:45:56.385Z,102194.88
2022-11-30T16:48:25.372Z,102195.84
2022-11-30T16:51:00.987Z,102193.97
2022-11-30T16:53:29.969Z,102186.44
2022-11-30T16:55:58.989Z,102188.97
2022-11-30T16:58:28.086Z,102182.72
2022-11-30T17:01:00.323Z,102183.94
2022-11-30T17:03:32.651Z,102179.84
2022-11-30T17:06:03.221Z,102183.28
2022-11-30T17:08:32.321Z,102183.91
2022-11-30T17:11:01.725Z,102181.38
2022-11-30T17:13:30.754Z,102191.44
2022-11-30T17:15:59.834Z,102191.72
2022-11-30T17:18:28.781Z,102193.88
2022-11-30T17:21:03.716Z,102190.38
2022-11-30T17:23:32.929Z,102191.00
2022-11-30T17:26:01.917Z,102195.69
2022-11-30T17:28:30.905Z,102204.16
2022-11-30T17:31:00.079Z,102203.53
2022-11-30T17:33:33.428Z,102201.31
2022-11-30T17:36:06.907Z,102198.78
2022-11-30T17:38:37.226Z,102198.78
2022-11-30T17:41:10.399Z,102196.91
2022-11-30T17:43:42.264Z,102200.66
2022-11-30T17:46:13.206Z,102196.28
2022-11-30T17:48:43.182Z,102191.88
2022-11-30T17:51:14.330Z,102199.44
2022-11-30T17:53:44.414Z,102192.50
2022-11-30T17:56:15.959Z,102194.41
2022-11-30T17:58:46.474Z,102199.41
2022-11-30T18:01:18.960Z,102199.72
2022-11-30T18:03:48.811Z,102196.53
2022-11-30T18:06:22.069Z,102197.50
2022-11-30T18:08:51.084Z,102195.31
2022-11-30T18:11:21.977Z,102196.25
2022-11-30T18:13:53.625Z,102190.59
2022-11-30T18:16:25.046Z,102189.00
2022-11-30T18:18:56.375Z,102190.88
2022-11-30T18:21:29.413Z,102187.75
2022-11-30T18:23:59.520Z,102190.56
2022-11-30T18:26:29.046Z,102198.78
2022-11-30T18:29:00.506Z,102193.72
2022-11-30T18:31:31.882Z,102190.53
2022-11-30T18:34:02.670Z,102201.78
2022-11-30T18:36:34.849Z,102196.69
2022-11-30T18:39:04.107Z,102196.03
2022-11-30T18:41:33.392Z,102198.53
2022-11-30T18:44:02.567Z,102199.13
2022-11-30T18:46:31.974Z,102199.69
2022-11-30T18:49:01.793Z,102203.75
2022-11-30T18:51:33.197Z,102208.47
2022-11-30T18:54:03.899Z,102214.13
2022-11-30T18:56:34.521Z,102212.84
2022-11-30T18:59:06.052Z,102215.66
2022-11-30T19:01:36.105Z,102216.91
2022-11-30T19:04:07.426Z,102217.81
2022-11-30T19:06:39.240Z,102215.63
2022-11-30T19:09:10.941Z,102215.59
2022-11-30T19:11:41.002Z,102213.03
2022-11-30T19:14:13.080Z,102221.81
2022-11-30T19:16:43.115Z,102222.09
2022-11-30T19:19:14.230Z,102230.25
2022-11-30T19:21:47.975Z,102228.34
2022-11-30T19:24:17.767Z,102231.19
2022-11-30T19:26:46.969Z,102231.56
2022-11-30T19:29:16.156Z,102226.50
2022-11-30T19:31:45.191Z,102230.22
2022-11-30T19:34:14.321Z,102232.38
2022-11-30T19:36:43.454Z,102223.28
2022-11-30T19:39:13.877Z,102224.75
2022-11-30T19:41:42.881Z,102233.38
2022-11-30T19:44:14.935Z,102235.88
2022-11-30T19:46:44.403Z,102236.75
2022-11-30T19:49:13.710Z,102241.81
2022-11-30T19:51:42.696Z,102239.91
2022-11-30T19:54:13.276Z,102246.44
2022-11-30T19:56:43.310Z,102254.22
2022-11-30T19:59:12.441Z,102255.53
2022-11-30T20:01:41.880Z,102252.97
2022-11-30T20:04:11.107Z,102257.13
2022-11-30T20:06:40.657Z,102258.34
2022-11-30T20:09:12.001Z,102257.00
2022-11-30T20:11:42.514Z,102257.88
2022-11-30T20:14:17.038Z,102259.69
2022-11-30T20:16:46.248Z,102268.38
2022-11-30T20:19:16.793Z,102263.00
2022-11-30T20:21:45.940Z,102264.22
2022-11-30T20:24:15.475Z,102268.31
2022-11-30T20:26:47.101Z,102262.63
2022-11-30T20:29:17.583Z,102268.53
2022-11-30T20:31:48.488Z,102269.78
2022-11-30T20:34:18.211Z,102268.50
2022-11-30T20:36:47.206Z,102267.56
2022-11-30T20:39:16.270Z,102261.88
2022-11-30T20:41:46.656Z,102267.78
2022-11-30T20:44:17.004Z,102266.56
2022-11-30T20:46:46.131Z,102267.19
2022-11-30T20:49:17.969Z,102271.31
2022-11-30T20:51:47.345Z,102270.03
2022-11-30T20:54:17.888Z,102270.91
2022-11-30T20:56:51.075Z,102272.50
2022-11-30T20:59:23.830Z,102270.88
2022-11-30T21:01:53.172Z,102271.16
2022-11-30T21:04:25.828Z,102269.28
2022-11-30T21:06:55.422Z,102266.72
2022-11-30T21:09:24.452Z,102270.44
2022-11-30T21:11:54.908Z,102268.84
2022-11-30T21:14:24.048Z,102270.38
2022-11-30T21:16:53.034Z,102270.06
2022-11-30T21:19:22.215Z,102274.63
2022-11-30T21:21:51.207Z,102263.91
2022-11-30T21:24:21.281Z,102265.81
2022-11-30T21:26:50.355Z,102267.09
2022-11-30T21:29:20.790Z,102263.72
2022-11-30T21:31:49.812Z,102264.69
2022-11-30T21:34:18.972Z,102258.38
2022-11-30T21:36:48.987Z,102267.09
2022-11-30T21:39:17.957Z,102273.38
2022-11-30T21:41:47.004Z,102270.19
2022-11-30T21:44:17.170Z,102269.88
2022-11-30T21:46:48.514Z,102271.09
2022-11-30T21:49:17.882Z,102275.81
2022-11-30T21:51:47.132Z,102265.13
2022-11-30T21:54:16.099Z,102270.72
2022-11-30T21:56:46.084Z,102278.19
2022-11-30T21:59:16.034Z,102271.88
2022-11-30T22:01:47.660Z,102270.09
2022-11-30T22:04:17.056Z,102284.81
2022-11-30T22:06:46.106Z,102272.53
2022-11-30T22:09:16.666Z,102277.88
2022-11-30T22:11:46.696Z,102277.88
2022-11-30T22:14:17.914Z,102276.81
2022-11-30T22:16:48.426Z,102270.47
2022-11-30T22:19:18.333Z,102272.38
2022-11-30T22:21:50.248Z,102277.66
2022-11-30T22:24:19.909Z,102273.84
2022-11-30T22:26:50.123Z,102274.78
2022-11-30T22:29:22.331Z,102272.28
2022-11-30T22:31:55.884Z,102279.16
2022-11-30T22:34:24.855Z,102279.84
2022-11-30T22:36:53.958Z,102268.59
2022-11-30T22:39:23.231Z,102271.03
2022-11-30T22:41:55.585Z,102275.66
2022-11-30T22:44:25.758Z,102279.06
2022-11-30T22:46:56.406Z,102265.28
2022-11-30T22:49:25.820Z,102272.53
2022-11-30T22:51:54.905Z,102273.09
2022-11-30T22:54:23.794Z,102275.81
2022-11-30T22:56:52.790Z,102270.81
2022-11-30T22:59:21.659Z,102273.94
2022-11-30T23:01:51.625Z,102279.47
2022-11-30T23:04:23.797Z,102285.78
2022-11-30T23:06:53.187Z,102290.06
2022-11-30T23:09:24.025Z,102287.47
2022-11-30T23:11:52.995Z,102283.09
2022-11-30T23:14:21.993Z,102274.91
2022-11-30T23:16:50.945Z,102283.28
2022-11-30T23:19:21.316Z,102283.56
2022-11-30T23:21:50.685Z,102278.81
2022-11-30T23:24:21.524Z,102272.22
2022-11-30T23:26:51.011Z,102272.88
2022-11-30T23:29:20.059Z,102279.63
2022-11-30T23:31:49.550Z,102285.19
2022-11-30T23:34:21.244Z,102283.69
2022-11-30T23:36:51.921Z,102280.31
2022-11-30T23:39:21.393Z,102281.25
2022-11-30T23:41:50.603Z,102278.69
2022-11-30T23:44:19.798Z,102284.94
2022-11-30T23:46:49.741Z,102294.59
2022-11-30T23:49:18.764Z,102284.56
2022-11-30T23:51:47.802Z,102274.81
2022-11-30T23:54:18.196Z,102269.41
2022-11-30T23:56:48.680Z,102278.78
2022-11-30T23:59:17.655Z,102274.41
